sensor_id;sensor_type;location;lat;lon;timestamp;temperature;humidity
74540;SHT31;66042;51.090;-115.340;2023-06-22T00:01:19;17.02;35.63
74540;SHT31;66042;51.090;-115.340;2023-06-22T00:03:48;16.92;36.29
74540;SHT31;66042;51.090;-115.340;2023-06-22T00:06:15;16.82;36.10
74540;SHT31;66042;51.090;-115.340;2023-06-22T00:08:42;16.66;36.38
74540;SHT31;66042;51.090;-115.340;2023-06-22T00:11:09;16.41;37.19
74540;SHT31;66042;51.090;-115.340;2023-06-22T00:13:36;16.23;37.98
74540;SHT31;66042;51.090;-115.340;2023-06-22T00:16:04;16.08;38.71
74540;SHT31;66042;51.090;-115.340;2023-06-22T00:18:31;15.93;39.86
74540;SHT31;66042;51.090;-115.340;2023-06-22T00:20:58;15.80;41.65
74540;SHT31;66042;51.090;-115.340;2023-06-22T00:23:25;15.68;43.07
74540;SHT31;66042;51.090;-115.340;2023-06-22T00:25:52;15.65;43.91
74540;SHT31;66042;51.090;-115.340;2023-06-22T00:28:20;15.69;45.69
74540;SHT31;66042;51.090;-115.340;2023-06-22T00:30:48;15.72;46.40
74540;SHT31;66042;51.090;-115.340;2023-06-22T00:33:15;15.80;47.14
74540;SHT31;66042;51.090;-115.340;2023-06-22T00:35:42;15.93;46.49
74540;SHT31;66042;51.090;-115.340;2023-06-22T00:38:10;16.15;45.92
74540;SHT31;66042;51.090;-115.340;2023-06-22T00:40:38;16.47;45.59
74540;SHT31;66042;51.090;-115.340;2023-06-22T00:43:05;17.12;44.51
74540;SHT31;66042;51.090;-115.340;2023-06-22T00:45:32;17.89;43.09
74540;SHT31;66042;51.090;-115.340;2023-06-22T00:47:59;18.65;42.13
74540;SHT31;66042;51.090;-115.340;2023-06-22T00:50:27;19.21;40.22
74540;SHT31;66042;51.090;-115.340;2023-06-22T00:53:01;19.50;38.36
74540;SHT31;66042;51.090;-115.340;2023-06-22T00:55:35;19.67;38.20
74540;SHT31;66042;51.090;-115.340;2023-06-22T00:58:09;20.08;37.40
74540;SHT31;66042;51.090;-115.340;2023-06-22T01:00:37;20.08;37.02
74540;SHT31;66042;51.090;-115.340;2023-06-22T01:03:06;20.06;37.19
74540;SHT31;66042;51.090;-115.340;2023-06-22T01:05:35;20.15;36.90
74540;SHT31;66042;51.090;-115.340;2023-06-22T01:11:18;20.13;36.06
74540;SHT31;66042;51.090;-115.340;2023-06-22T01:13:57;20.13;35.40
74540;SHT31;66042;51.090;-115.340;2023-06-22T01:16:31;20.33;34.61
74540;SHT31;66042;51.090;-115.340;2023-06-22T01:22:07;21.28;33.36
74540;SHT31;66042;51.090;-115.340;2023-06-22T01:28:12;23.47;29.54
74540;SHT31;66042;51.090;-115.340;2023-06-22T01:30:49;24.09;28.96
74540;SHT31;66042;51.090;-115.340;2023-06-22T01:33:34;25.26;28.03
74540;SHT31;66042;51.090;-115.340;2023-06-22T01:36:08;26.32;26.84
74540;SHT31;66042;51.090;-115.340;2023-06-22T01:38:36;27.22;25.95
74540;SHT31;66042;51.090;-115.340;2023-06-22T01:41:05;28.14;24.85
74540;SHT31;66042;51.090;-115.340;2023-06-22T01:43:32;28.94;24.33
74540;SHT31;66042;51.090;-115.340;2023-06-22T01:46:01;29.53;23.60
74540;SHT31;66042;51.090;-115.340;2023-06-22T01:48:29;29.87;22.64
74540;SHT31;66042;51.090;-115.340;2023-06-22T01:50:57;29.07;22.97
74540;SHT31;66042;51.090;-115.340;2023-06-22T01:53:25;28.21;23.66
74540;SHT31;66042;51.090;-115.340;2023-06-22T01:55:52;27.67;24.11
74540;SHT31;66042;51.090;-115.340;2023-06-22T01:58:20;28.14;23.95
74540;SHT31;66042;51.090;-115.340;2023-06-22T02:00:57;28.01;23.56
74540;SHT31;66042;51.090;-115.340;2023-06-22T02:03:35;27.22;23.67
74540;SHT31;66042;51.090;-115.340;2023-06-22T02:06:24;26.30;24.19
74540;SHT31;66042;51.090;-115.340;2023-06-22T02:09:06;25.22;24.86
74540;SHT31;66042;51.090;-115.340;2023-06-22T02:11:42;24.32;25.91
74540;SHT31;66042;51.090;-115.340;2023-06-22T02:14:12;23.60;26.92
74540;SHT31;66042;51.090;-115.340;2023-06-22T02:16:41;22.99;27.56
74540;SHT31;66042;51.090;-115.340;2023-06-22T02:19:08;22.46;28.47
74540;SHT31;66042;51.090;-115.340;2023-06-22T02:21:35;21.99;28.78
74540;SHT31;66042;51.090;-115.340;2023-06-22T02:24:03;21.52;29.47
74540;SHT31;66042;51.090;-115.340;2023-06-22T02:26:32;21.20;30.00
74540;SHT31;66042;51.090;-115.340;2023-06-22T02:29:00;20.81;30.93
74540;SHT31;66042;51.090;-115.340;2023-06-22T02:31:26;20.45;31.65
74540;SHT31;66042;51.090;-115.340;2023-06-22T02:33:57;20.16;32.11
74540;SHT31;66042;51.090;-115.340;2023-06-22T02:36:25;19.91;32.63
74540;SHT31;66042;51.090;-115.340;2023-06-22T02:38:52;19.65;33.42
74540;SHT31;66042;51.090;-115.340;2023-06-22T02:41:22;19.41;33.89
74540;SHT31;66042;51.090;-115.340;2023-06-22T02:43:49;19.18;34.31
74540;SHT31;66042;51.090;-115.340;2023-06-22T02:46:16;18.99;35.06
74540;SHT31;66042;51.090;-115.340;2023-06-22T02:48:43;18.82;35.40
74540;SHT31;66042;51.090;-115.340;2023-06-22T02:51:10;18.65;35.79
74540;SHT31;66042;51.090;-115.340;2023-06-22T02:53:37;18.49;36.14
74540;SHT31;66042;51.090;-115.340;2023-06-22T02:56:05;18.33;36.91
74540;SHT31;66042;51.090;-115.340;2023-06-22T02:58:32;18.12;37.19
74540;SHT31;66042;51.090;-115.340;2023-06-22T03:01:06;17.90;37.64
74540;SHT31;66042;51.090;-115.340;2023-06-22T03:03:33;17.70;37.93
74540;SHT31;66042;51.090;-115.340;2023-06-22T03:06:00;17.48;38.56
74540;SHT31;66042;51.090;-115.340;2023-06-22T03:08:27;17.20;39.50
74540;SHT31;66042;51.090;-115.340;2023-06-22T03:10:54;16.97;40.15
74540;SHT31;66042;51.090;-115.340;2023-06-22T03:13:22;16.79;40.58
74540;SHT31;66042;51.090;-115.340;2023-06-22T03:15:49;16.61;40.80
74540;SHT31;66042;51.090;-115.340;2023-06-22T03:18:16;16.42;41.40
74540;SHT31;66042;51.090;-115.340;2023-06-22T03:20:43;16.27;41.98
74540;SHT31;66042;51.090;-115.340;2023-06-22T03:23:10;16.12;42.21
74540;SHT31;66042;51.090;-115.340;2023-06-22T03:25:37;15.95;42.48
74540;SHT31;66042;51.090;-115.340;2023-06-22T03:28:04;15.80;43.11
74540;SHT31;66042;51.090;-115.340;2023-06-22T03:30:31;15.66;43.57
74540;SHT31;66042;51.090;-115.340;2023-06-22T03:32:58;15.52;43.95
74540;SHT31;66042;51.090;-115.340;2023-06-22T03:35:25;15.40;44.37
74540;SHT31;66042;51.090;-115.340;2023-06-22T03:37:52;15.26;44.80
74540;SHT31;66042;51.090;-115.340;2023-06-22T03:40:19;15.13;45.25
74540;SHT31;66042;51.090;-115.340;2023-06-22T03:42:46;15.01;45.52
74540;SHT31;66042;51.090;-115.340;2023-06-22T03:45:14;14.92;45.60
74540;SHT31;66042;51.090;-115.340;2023-06-22T03:47:41;14.82;46.02
74540;SHT31;66042;51.090;-115.340;2023-06-22T03:50:09;14.72;46.97
74540;SHT31;66042;51.090;-115.340;2023-06-22T03:52:36;14.52;47.78
74540;SHT31;66042;51.090;-115.340;2023-06-22T03:55:03;14.41;48.07
74540;SHT31;66042;51.090;-115.340;2023-06-22T03:57:31;14.34;48.52
74540;SHT31;66042;51.090;-115.340;2023-06-22T03:59:58;14.22;49.00
74540;SHT31;66042;51.090;-115.340;2023-06-22T04:02:25;14.15;49.32
74540;SHT31;66042;51.090;-115.340;2023-06-22T04:04:52;14.09;49.36
74540;SHT31;66042;51.090;-115.340;2023-06-22T04:07:19;14.04;49.44
74540;SHT31;66042;51.090;-115.340;2023-06-22T04:09:46;13.96;49.59
74540;SHT31;66042;51.090;-115.340;2023-06-22T04:12:13;13.86;49.69
74540;SHT31;66042;51.090;-115.340;2023-06-22T04:14:40;13.73;50.27
74540;SHT31;66042;51.090;-115.340;2023-06-22T04:17:07;13.58;50.67
74540;SHT31;66042;51.090;-115.340;2023-06-22T04:19:33;13.48;51.29
74540;SHT31;66042;51.090;-115.340;2023-06-22T04:22:00;13.40;51.26
74540;SHT31;66042;51.090;-115.340;2023-06-22T04:24:27;13.34;51.23
74540;SHT31;66042;51.090;-115.340;2023-06-22T04:26:54;13.24;51.59
74540;SHT31;66042;51.090;-115.340;2023-06-22T04:29:21;13.05;52.17
74540;SHT31;66042;51.090;-115.340;2023-06-22T04:31:54;12.85;52.55
74540;SHT31;66042;51.090;-115.340;2023-06-22T04:34:24;12.73;52.75
74540;SHT31;66042;51.090;-115.340;2023-06-22T04:36:54;12.68;52.92
74540;SHT31;66042;51.090;-115.340;2023-06-22T04:39:21;12.54;53.44
74540;SHT31;66042;51.090;-115.340;2023-06-22T04:41:48;12.33;53.86
74540;SHT31;66042;51.090;-115.340;2023-06-22T04:44:17;12.30;53.95
74540;SHT31;66042;51.090;-115.340;2023-06-22T04:46:54;12.17;54.18
74540;SHT31;66042;51.090;-115.340;2023-06-22T04:49:29;11.92;54.82
74540;SHT31;66042;51.090;-115.340;2023-06-22T04:52:03;11.85;55.09
74540;SHT31;66042;51.090;-115.340;2023-06-22T04:54:33;11.80;55.20
74540;SHT31;66042;51.090;-115.340;2023-06-22T04:57:03;11.80;55.16
74540;SHT31;66042;51.090;-115.340;2023-06-22T04:59:35;11.78;55.38
74540;SHT31;66042;51.090;-115.340;2023-06-22T05:02:04;11.72;55.32
74540;SHT31;66042;51.090;-115.340;2023-06-22T05:04:32;11.75;55.22
74540;SHT31;66042;51.090;-115.340;2023-06-22T05:07:04;11.72;55.22
74540;SHT31;66042;51.090;-115.340;2023-06-22T05:09:32;11.68;55.34
74540;SHT31;66042;51.090;-115.340;2023-06-22T05:11:59;11.66;55.48
74540;SHT31;66042;51.090;-115.340;2023-06-22T05:14:28;11.60;55.47
74540;SHT31;66042;51.090;-115.340;2023-06-22T05:16:56;11.54;55.65
74540;SHT31;66042;51.090;-115.340;2023-06-22T05:19:29;11.50;55.82
74540;SHT31;66042;51.090;-115.340;2023-06-22T05:21:58;11.47;55.89
74540;SHT31;66042;51.090;-115.340;2023-06-22T05:24:25;11.40;56.15
74540;SHT31;66042;51.090;-115.340;2023-06-22T05:26:52;11.32;56.49
74540;SHT31;66042;51.090;-115.340;2023-06-22T05:29:19;11.25;56.57
74540;SHT31;66042;51.090;-115.340;2023-06-22T05:31:47;11.21;56.59
74540;SHT31;66042;51.090;-115.340;2023-06-22T05:34:15;11.15;56.75
74540;SHT31;66042;51.090;-115.340;2023-06-22T05:36:42;11.06;57.12
74540;SHT31;66042;51.090;-115.340;2023-06-22T05:39:12;11.01;57.19
74540;SHT31;66042;51.090;-115.340;2023-06-22T05:41:40;10.93;57.52
74540;SHT31;66042;51.090;-115.340;2023-06-22T05:44:08;10.79;57.85
74540;SHT31;66042;51.090;-115.340;2023-06-22T05:46:36;10.77;57.79
74540;SHT31;66042;51.090;-115.340;2023-06-22T05:49:09;10.73;57.80
74540;SHT31;66042;51.090;-115.340;2023-06-22T05:51:37;10.62;57.97
74540;SHT31;66042;51.090;-115.340;2023-06-22T05:54:05;10.57;58.04
74540;SHT31;66042;51.090;-115.340;2023-06-22T05:56:34;10.54;58.04
74540;SHT31;66042;51.090;-115.340;2023-06-22T05:59:01;10.50;58.09
74540;SHT31;66042;51.090;-115.340;2023-06-22T06:01:28;10.47;58.11
74540;SHT31;66042;51.090;-115.340;2023-06-22T06:03:56;10.44;58.23
74540;SHT31;66042;51.090;-115.340;2023-06-22T06:06:23;10.41;58.31
74540;SHT31;66042;51.090;-115.340;2023-06-22T06:08:54;10.39;58.40
74540;SHT31;66042;51.090;-115.340;2023-06-22T06:11:21;10.34;58.62
74540;SHT31;66042;51.090;-115.340;2023-06-22T06:13:49;10.17;58.93
74540;SHT31;66042;51.090;-115.340;2023-06-22T06:16:16;10.13;58.99
74540;SHT31;66042;51.090;-115.340;2023-06-22T06:18:43;10.11;58.97
74540;SHT31;66042;51.090;-115.340;2023-06-22T06:21:09;10.05;59.07
74540;SHT31;66042;51.090;-115.340;2023-06-22T06:23:37;10.04;59.14
74540;SHT31;66042;51.090;-115.340;2023-06-22T06:26:03;9.99;59.30
74540;SHT31;66042;51.090;-115.340;2023-06-22T06:28:32;9.78;59.88
74540;SHT31;66042;51.090;-115.340;2023-06-22T06:31:00;9.60;60.46
74540;SHT31;66042;51.090;-115.340;2023-06-22T06:33:27;9.48;60.79
74540;SHT31;66042;51.090;-115.340;2023-06-22T06:35:54;9.48;60.85
74540;SHT31;66042;51.090;-115.340;2023-06-22T06:38:21;9.50;60.79
74540;SHT31;66042;51.090;-115.340;2023-06-22T06:40:48;9.52;60.75
74540;SHT31;66042;51.090;-115.340;2023-06-22T06:43:15;9.48;60.82
74540;SHT31;66042;51.090;-115.340;2023-06-22T06:45:41;9.47;60.84
74540;SHT31;66042;51.090;-115.340;2023-06-22T06:48:08;9.43;60.82
74540;SHT31;66042;51.090;-115.340;2023-06-22T06:50:35;9.48;60.71
74540;SHT31;66042;51.090;-115.340;2023-06-22T06:53:02;9.44;60.83
74540;SHT31;66042;51.090;-115.340;2023-06-22T06:55:28;9.32;61.01
74540;SHT31;66042;51.090;-115.340;2023-06-22T06:57:58;9.36;61.00
74540;SHT31;66042;51.090;-115.340;2023-06-22T07:00:25;9.38;61.03
74540;SHT31;66042;51.090;-115.340;2023-06-22T07:02:52;9.25;61.35
74540;SHT31;66042;51.090;-115.340;2023-06-22T07:05:19;9.20;61.35
74540;SHT31;66042;51.090;-115.340;2023-06-22T07:07:47;9.22;61.26
74540;SHT31;66042;51.090;-115.340;2023-06-22T07:10:14;9.23;61.21
74540;SHT31;66042;51.090;-115.340;2023-06-22T07:12:42;9.20;61.20
74540;SHT31;66042;51.090;-115.340;2023-06-22T07:15:09;9.21;61.16
74540;SHT31;66042;51.090;-115.340;2023-06-22T07:17:38;9.21;61.19
74540;SHT31;66042;51.090;-115.340;2023-06-22T07:20:08;9.20;61.08
74540;SHT31;66042;51.090;-115.340;2023-06-22T07:22:38;9.19;61.13
74540;SHT31;66042;51.090;-115.340;2023-06-22T07:25:06;9.13;61.21
74540;SHT31;66042;51.090;-115.340;2023-06-22T07:27:43;9.00;61.48
74540;SHT31;66042;51.090;-115.340;2023-06-22T07:30:22;8.92;61.63
74540;SHT31;66042;51.090;-115.340;2023-06-22T07:32:49;8.92;61.56
74540;SHT31;66042;51.090;-115.340;2023-06-22T07:35:16;8.91;61.42
74540;SHT31;66042;51.090;-115.340;2023-06-22T07:37:43;8.90;61.48
74540;SHT31;66042;51.090;-115.340;2023-06-22T07:40:10;8.85;61.56
74540;SHT31;66042;51.090;-115.340;2023-06-22T07:42:38;8.76;61.80
74540;SHT31;66042;51.090;-115.340;2023-06-22T07:45:05;8.67;61.82
74540;SHT31;66042;51.090;-115.340;2023-06-22T07:47:36;8.59;61.90
74540;SHT31;66042;51.090;-115.340;2023-06-22T07:50:03;8.57;61.94
74540;SHT31;66042;51.090;-115.340;2023-06-22T07:52:31;8.58;62.04
74540;SHT31;66042;51.090;-115.340;2023-06-22T07:54:58;8.57;62.15
74540;SHT31;66042;51.090;-115.340;2023-06-22T07:57:25;8.57;62.12
74540;SHT31;66042;51.090;-115.340;2023-06-22T07:59:59;8.56;62.22
74540;SHT31;66042;51.090;-115.340;2023-06-22T08:02:29;8.54;62.30
74540;SHT31;66042;51.090;-115.340;2023-06-22T08:04:56;8.54;62.34
74540;SHT31;66042;51.090;-115.340;2023-06-22T08:07:24;8.55;62.33
74540;SHT31;66042;51.090;-115.340;2023-06-22T08:09:50;8.51;62.35
74540;SHT31;66042;51.090;-115.340;2023-06-22T08:12:17;8.45;62.51
74540;SHT31;66042;51.090;-115.340;2023-06-22T08:14:45;8.39;62.60
74540;SHT31;66042;51.090;-115.340;2023-06-22T08:17:12;8.39;62.56
74540;SHT31;66042;51.090;-115.340;2023-06-22T08:19:39;8.39;62.59
74540;SHT31;66042;51.090;-115.340;2023-06-22T08:22:06;8.39;62.56
74540;SHT31;66042;51.090;-115.340;2023-06-22T08:24:33;8.37;62.68
74540;SHT31;66042;51.090;-115.340;2023-06-22T08:27:00;8.31;62.90
74540;SHT31;66042;51.090;-115.340;2023-06-22T08:29:27;8.19;63.21
74540;SHT31;66042;51.090;-115.340;2023-06-22T08:31:55;8.19;63.16
74540;SHT31;66042;51.090;-115.340;2023-06-22T08:34:23;8.22;63.01
74540;SHT31;66042;51.090;-115.340;2023-06-22T08:36:53;8.17;63.12
74540;SHT31;66042;51.090;-115.340;2023-06-22T08:39:20;8.10;63.22
74540;SHT31;66042;51.090;-115.340;2023-06-22T08:41:47;8.06;63.25
74540;SHT31;66042;51.090;-115.340;2023-06-22T08:44:16;8.03;63.24
74540;SHT31;66042;51.090;-115.340;2023-06-22T08:46:45;8.02;63.35
74540;SHT31;66042;51.090;-115.340;2023-06-22T08:49:12;8.08;63.30
74540;SHT31;66042;51.090;-115.340;2023-06-22T08:51:39;8.02;63.38
74540;SHT31;66042;51.090;-115.340;2023-06-22T08:54:06;7.90;63.62
74540;SHT31;66042;51.090;-115.340;2023-06-22T08:56:33;7.80;63.86
74540;SHT31;66042;51.090;-115.340;2023-06-22T08:59:00;7.82;63.75
74540;SHT31;66042;51.090;-115.340;2023-06-22T09:01:27;7.84;63.67
74540;SHT31;66042;51.090;-115.340;2023-06-22T09:03:54;7.87;63.55
74540;SHT31;66042;51.090;-115.340;2023-06-22T09:06:23;7.90;63.50
74540;SHT31;66042;51.090;-115.340;2023-06-22T09:08:50;7.84;63.61
74540;SHT31;66042;51.090;-115.340;2023-06-22T09:11:17;7.83;63.69
74540;SHT31;66042;51.090;-115.340;2023-06-22T09:13:44;7.83;63.66
74540;SHT31;66042;51.090;-115.340;2023-06-22T09:16:12;7.82;63.58
74540;SHT31;66042;51.090;-115.340;2023-06-22T09:18:39;7.80;63.58
74540;SHT31;66042;51.090;-115.340;2023-06-22T09:21:06;7.79;63.64
74540;SHT31;66042;51.090;-115.340;2023-06-22T09:23:33;7.77;63.68
74540;SHT31;66042;51.090;-115.340;2023-06-22T09:26:00;7.68;63.83
74540;SHT31;66042;51.090;-115.340;2023-06-22T09:28:29;7.57;64.10
74540;SHT31;66042;51.090;-115.340;2023-06-22T09:30:56;7.55;64.03
74540;SHT31;66042;51.090;-115.340;2023-06-22T09:33:25;7.55;63.93
74540;SHT31;66042;51.090;-115.340;2023-06-22T09:35:52;7.52;64.11
74540;SHT31;66042;51.090;-115.340;2023-06-22T09:38:19;7.49;64.15
74540;SHT31;66042;51.090;-115.340;2023-06-22T09:40:46;7.45;64.29
74540;SHT31;66042;51.090;-115.340;2023-06-22T09:43:13;7.43;64.38
74540;SHT31;66042;51.090;-115.340;2023-06-22T09:45:40;7.33;64.59
74540;SHT31;66042;51.090;-115.340;2023-06-22T09:48:07;7.25;64.70
74540;SHT31;66042;51.090;-115.340;2023-06-22T09:50:35;7.24;64.75
74540;SHT31;66042;51.090;-115.340;2023-06-22T09:53:03;7.27;64.64
74540;SHT31;66042;51.090;-115.340;2023-06-22T09:55:29;7.33;64.44
74540;SHT31;66042;51.090;-115.340;2023-06-22T09:57:56;7.37;64.29
74540;SHT31;66042;51.090;-115.340;2023-06-22T10:00:23;7.37;64.21
74540;SHT31;66042;51.090;-115.340;2023-06-22T10:02:52;7.39;64.26
74540;SHT31;66042;51.090;-115.340;2023-06-22T10:05:19;7.35;64.43
74540;SHT31;66042;51.090;-115.340;2023-06-22T10:07:46;7.35;64.45
74540;SHT31;66042;51.090;-115.340;2023-06-22T10:10:13;7.31;64.48
74540;SHT31;66042;51.090;-115.340;2023-06-22T10:12:47;7.28;64.49
74540;SHT31;66042;51.090;-115.340;2023-06-22T10:15:23;7.25;64.55
74540;SHT31;66042;51.090;-115.340;2023-06-22T10:17:52;7.20;64.65
74540;SHT31;66042;51.090;-115.340;2023-06-22T10:20:19;7.18;64.68
74540;SHT31;66042;51.090;-115.340;2023-06-22T10:22:47;7.16;64.93
74540;SHT31;66042;51.090;-115.340;2023-06-22T10:25:14;7.16;64.97
74540;SHT31;66042;51.090;-115.340;2023-06-22T10:27:41;7.18;65.01
74540;SHT31;66042;51.090;-115.340;2023-06-22T10:30:09;7.10;65.38
74540;SHT31;66042;51.090;-115.340;2023-06-22T10:32:41;7.11;65.49
74540;SHT31;66042;51.090;-115.340;2023-06-22T10:35:09;7.12;65.66
74540;SHT31;66042;51.090;-115.340;2023-06-22T10:37:41;7.15;65.63
74540;SHT31;66042;51.090;-115.340;2023-06-22T10:40:15;7.15;65.82
74540;SHT31;66042;51.090;-115.340;2023-06-22T10:42:44;7.17;65.88
74540;SHT31;66042;51.090;-115.340;2023-06-22T10:45:11;7.23;65.78
74540;SHT31;66042;51.090;-115.340;2023-06-22T10:47:39;7.28;65.75
74540;SHT31;66042;51.090;-115.340;2023-06-22T10:50:07;7.32;65.80
74540;SHT31;66042;51.090;-115.340;2023-06-22T10:52:35;7.33;65.91
74540;SHT31;66042;51.090;-115.340;2023-06-22T10:55:02;7.33;66.13
74540;SHT31;66042;51.090;-115.340;2023-06-22T10:57:29;7.34;66.09
74540;SHT31;66042;51.090;-115.340;2023-06-22T10:59:56;7.36;66.08
74540;SHT31;66042;51.090;-115.340;2023-06-22T11:02:23;7.39;66.08
74540;SHT31;66042;51.090;-115.340;2023-06-22T11:04:50;7.37;66.44
74540;SHT31;66042;51.090;-115.340;2023-06-22T11:07:17;7.35;66.68
74540;SHT31;66042;51.090;-115.340;2023-06-22T11:09:44;7.37;66.76
74540;SHT31;66042;51.090;-115.340;2023-06-22T11:12:14;7.36;66.84
74540;SHT31;66042;51.090;-115.340;2023-06-22T11:14:41;7.41;66.61
74540;SHT31;66042;51.090;-115.340;2023-06-22T11:17:08;7.45;66.51
74540;SHT31;66042;51.090;-115.340;2023-06-22T11:19:35;7.42;66.89
74540;SHT31;66042;51.090;-115.340;2023-06-22T11:22:02;7.41;66.87
74540;SHT31;66042;51.090;-115.340;2023-06-22T11:24:29;7.43;66.91
74540;SHT31;66042;51.090;-115.340;2023-06-22T11:26:55;7.50;66.63
74540;SHT31;66042;51.090;-115.340;2023-06-22T11:29:22;7.57;66.44
74540;SHT31;66042;51.090;-115.340;2023-06-22T11:31:49;7.60;66.42
74540;SHT31;66042;51.090;-115.340;2023-06-22T11:34:16;7.64;66.36
74540;SHT31;66042;51.090;-115.340;2023-06-22T11:36:44;7.64;66.68
74540;SHT31;66042;51.090;-115.340;2023-06-22T11:39:12;7.67;66.64
74540;SHT31;66042;51.090;-115.340;2023-06-22T11:41:40;7.69;66.68
74540;SHT31;66042;51.090;-115.340;2023-06-22T11:44:07;7.66;67.17
74540;SHT31;66042;51.090;-115.340;2023-06-22T11:46:34;7.64;67.32
74540;SHT31;66042;51.090;-115.340;2023-06-22T11:49:02;7.70;67.02
74540;SHT31;66042;51.090;-115.340;2023-06-22T11:51:29;7.75;66.99
74540;SHT31;66042;51.090;-115.340;2023-06-22T11:53:57;7.78;66.83
74540;SHT31;66042;51.090;-115.340;2023-06-22T11:56:24;7.82;66.97
74540;SHT31;66042;51.090;-115.340;2023-06-22T11:58:52;7.85;66.83
74540;SHT31;66042;51.090;-115.340;2023-06-22T12:01:19;7.91;66.86
74540;SHT31;66042;51.090;-115.340;2023-06-22T12:03:46;7.91;66.88
74540;SHT31;66042;51.090;-115.340;2023-06-22T12:06:13;7.95;66.74
74540;SHT31;66042;51.090;-115.340;2023-06-22T12:08:40;7.99;66.55
74540;SHT31;66042;51.090;-115.340;2023-06-22T12:11:07;8.01;66.49
74540;SHT31;66042;51.090;-115.340;2023-06-22T12:13:34;8.05;66.24
74540;SHT31;66042;51.090;-115.340;2023-06-22T12:16:01;8.08;66.33
74540;SHT31;66042;51.090;-115.340;2023-06-22T12:18:28;8.08;66.24
74540;SHT31;66042;51.090;-115.340;2023-06-22T12:20:54;8.11;66.13
74540;SHT31;66042;51.090;-115.340;2023-06-22T12:23:21;8.12;66.04
74540;SHT31;66042;51.090;-115.340;2023-06-22T12:25:48;8.15;65.93
74540;SHT31;66042;51.090;-115.340;2023-06-22T12:28:15;8.15;66.05
74540;SHT31;66042;51.090;-115.340;2023-06-22T12:30:42;8.16;66.12
74540;SHT31;66042;51.090;-115.340;2023-06-22T12:33:09;8.16;66.23
74540;SHT31;66042;51.090;-115.340;2023-06-22T12:35:37;8.19;66.28
74540;SHT31;66042;51.090;-115.340;2023-06-22T12:38:03;8.21;66.31
74540;SHT31;66042;51.090;-115.340;2023-06-22T12:40:31;8.25;66.31
74540;SHT31;66042;51.090;-115.340;2023-06-22T12:42:58;8.31;66.19
74540;SHT31;66042;51.090;-115.340;2023-06-22T12:45:25;8.35;65.96
74540;SHT31;66042;51.090;-115.340;2023-06-22T12:47:54;8.42;65.84
74540;SHT31;66042;51.090;-115.340;2023-06-22T12:50:21;8.50;65.91
74540;SHT31;66042;51.090;-115.340;2023-06-22T12:52:48;8.54;65.88
74540;SHT31;66042;51.090;-115.340;2023-06-22T12:55:15;8.55;65.92
74540;SHT31;66042;51.090;-115.340;2023-06-22T12:57:42;8.48;65.98
74540;SHT31;66042;51.090;-115.340;2023-06-22T13:00:08;8.46;65.96
74540;SHT31;66042;51.090;-115.340;2023-06-22T13:02:37;8.51;65.77
74540;SHT31;66042;51.090;-115.340;2023-06-22T13:05:03;8.56;65.71
74540;SHT31;66042;51.090;-115.340;2023-06-22T13:07:30;8.58;65.95
74540;SHT31;66042;51.090;-115.340;2023-06-22T13:09:58;8.62;65.64
74540;SHT31;66042;51.090;-115.340;2023-06-22T13:12:24;8.65;65.61
74540;SHT31;66042;51.090;-115.340;2023-06-22T13:14:51;8.66;65.74
74540;SHT31;66042;51.090;-115.340;2023-06-22T13:17:18;8.70;65.73
74540;SHT31;66042;51.090;-115.340;2023-06-22T13:19:45;8.73;65.69
74540;SHT31;66042;51.090;-115.340;2023-06-22T13:22:27;8.77;65.53
74540;SHT31;66042;51.090;-115.340;2023-06-22T13:25:05;8.83;65.33
74540;SHT31;66042;51.090;-115.340;2023-06-22T13:27:33;8.89;65.13
74540;SHT31;66042;51.090;-115.340;2023-06-22T13:30:00;8.95;64.98
74540;SHT31;66042;51.090;-115.340;2023-06-22T13:32:28;9.00;64.85
74540;SHT31;66042;51.090;-115.340;2023-06-22T13:34:54;9.05;64.66
74540;SHT31;66042;51.090;-115.340;2023-06-22T13:37:21;9.09;64.43
74540;SHT31;66042;51.090;-115.340;2023-06-22T13:39:48;9.14;64.25
74540;SHT31;66042;51.090;-115.340;2023-06-22T13:42:14;9.16;64.15
74540;SHT31;66042;51.090;-115.340;2023-06-22T13:44:41;9.19;64.39
74540;SHT31;66042;51.090;-115.340;2023-06-22T13:47:08;9.21;64.34
74540;SHT31;66042;51.090;-115.340;2023-06-22T13:49:35;9.22;64.21
74540;SHT31;66042;51.090;-115.340;2023-06-22T13:52:02;9.25;63.99
74540;SHT31;66042;51.090;-115.340;2023-06-22T13:54:29;9.27;64.10
74540;SHT31;66042;51.090;-115.340;2023-06-22T13:56:56;9.27;64.14
74540;SHT31;66042;51.090;-115.340;2023-06-22T13:59:22;9.27;64.04
74540;SHT31;66042;51.090;-115.340;2023-06-22T14:01:51;9.30;64.04
74540;SHT31;66042;51.090;-115.340;2023-06-22T14:04:19;9.31;64.30
74540;SHT31;66042;51.090;-115.340;2023-06-22T14:06:47;9.36;64.32
74540;SHT31;66042;51.090;-115.340;2023-06-22T14:09:14;9.40;64.20
74540;SHT31;66042;51.090;-115.340;2023-06-22T14:11:41;9.43;64.21
74540;SHT31;66042;51.090;-115.340;2023-06-22T14:14:08;9.46;64.38
74540;SHT31;66042;51.090;-115.340;2023-06-22T14:16:35;9.51;64.60
74540;SHT31;66042;51.090;-115.340;2023-06-22T14:19:01;9.57;64.63
74540;SHT31;66042;51.090;-115.340;2023-06-22T14:21:28;9.64;64.49
74540;SHT31;66042;51.090;-115.340;2023-06-22T14:23:55;9.72;64.49
74540;SHT31;66042;51.090;-115.340;2023-06-22T14:26:22;9.78;64.38
74540;SHT31;66042;51.090;-115.340;2023-06-22T14:28:49;9.83;64.03
74540;SHT31;66042;51.090;-115.340;2023-06-22T14:31:16;9.89;64.04
74540;SHT31;66042;51.090;-115.340;2023-06-22T14:33:48;9.93;64.01
74540;SHT31;66042;51.090;-115.340;2023-06-22T14:36:15;9.98;63.74
74540;SHT31;66042;51.090;-115.340;2023-06-22T14:38:43;10.02;63.70
74540;SHT31;66042;51.090;-115.340;2023-06-22T14:41:11;10.09;63.34
74540;SHT31;66042;51.090;-115.340;2023-06-22T14:43:44;10.15;63.08
74540;SHT31;66042;51.090;-115.340;2023-06-22T14:46:15;10.20;63.16
74540;SHT31;66042;51.090;-115.340;2023-06-22T14:48:44;10.26;63.28
74540;SHT31;66042;51.090;-115.340;2023-06-22T14:51:11;10.31;63.20
74540;SHT31;66042;51.090;-115.340;2023-06-22T14:53:38;10.36;63.06
74540;SHT31;66042;51.090;-115.340;2023-06-22T14:56:05;10.42;62.57
74540;SHT31;66042;51.090;-115.340;2023-06-22T14:58:33;10.47;62.06
74540;SHT31;66042;51.090;-115.340;2023-06-22T15:01:03;10.53;61.49
74540;SHT31;66042;51.090;-115.340;2023-06-22T15:03:34;10.60;61.69
74540;SHT31;66042;51.090;-115.340;2023-06-22T15:06:02;10.68;61.67
74540;SHT31;66042;51.090;-115.340;2023-06-22T15:08:29;10.75;60.99
74540;SHT31;66042;51.090;-115.340;2023-06-22T15:11:00;10.80;61.04